Time;durP1;ratioP1;P1;durP2;ratioP2;P2;SDS_P1;SDS_P2;PMS_P1;PMS_P2;Temp;Humidity;BMP_temperature;BMP_pressure;BME280_temperature;BME280_humidity;BME280_pressure;Samples;Min_cycle;Max_cycle;Signal;HPM_P1;HPM_P2
2022/05/08 00:01:51;;;;;;;;;;;21.60;41.60;;;;;;5165033;27;19923;-59
2022/05/08 00:04:18;;;;;;;;;;;21.60;41.70;;;;;;5170645;27;20266;-56
2022/05/08 00:06:44;;;;;;;;;;;21.60;41.70;;;;;;5165191;27;20044;-60
2022/05/08 00:09:09;;;;;;;;;;;21.50;41.80;;;;;;5164899;27;20350;-58
2022/05/08 00:11:35;;;;;;;;;;;21.50;41.90;;;;;;5167267;27;19966;-59
2022/05/08 00:14:01;;;;;;;;;;;21.50;41.90;;;;;;5163921;27;20317;-57
2022/05/08 00:16:27;;;;;;;;;;;21.50;41.90;;;;;;5170102;27;19987;-57
2022/05/08 00:18:53;;;;;;;;;;;21.50;41.90;;;;;;5164797;27;19929;-60
2022/05/08 00:21:19;;;;;;;;;;;21.50;42.00;;;;;;5164583;27;20276;-59
2022/05/08 00:23:44;;;;;;;;;;;21.50;42.00;;;;;;5170360;27;19933;-59
2022/05/08 00:26:10;;;;;;;;;;;21.50;42.10;;;;;;5164835;27;20333;-59
2022/05/08 00:28:36;;;;;;;;;;;21.50;42.10;;;;;;5162666;27;20687;-59
2022/05/08 00:31:02;;;;;;;;;;;21.50;42.20;;;;;;5168316;27;19923;-58
2022/05/08 00:33:28;;;;;;;;;;;21.50;42.20;;;;;;5164068;27;19922;-59
2022/05/08 00:35:54;;;;;;;;;;;21.50;42.40;;;;;;5169922;27;19922;-58
2022/05/08 00:38:19;;;;;;;;;;;21.40;42.40;;;;;;5164556;27;19982;-60
2022/05/08 00:40:45;;;;;;;;;;;21.40;42.50;;;;;;5164304;27;20027;-59
2022/05/08 00:43:32;;;;;;;;;;;21.30;42.50;;;;;;5151397;27;19966;-57
2022/05/08 00:45:59;;;;;;;;;;;21.30;42.60;;;;;;5164161;27;20218;-59
2022/05/08 00:48:24;;;;;;;;;;;21.30;42.60;;;;;;5161091;27;19922;-60
2022/05/08 00:50:50;;;;;;;;;;;21.30;42.60;;;;;;5168894;27;19922;-57
2022/05/08 00:53:16;;;;;;;;;;;21.30;42.60;;;;;;5163916;27;19933;-58
2022/05/08 00:55:42;;;;;;;;;;;21.30;42.70;;;;;;5164096;27;20028;-60
2022/05/08 00:58:08;;;;;;;;;;;21.30;42.70;;;;;;5169550;27;19927;-59
2022/05/08 01:00:34;;;;;;;;;;;21.30;42.80;;;;;;5164401;27;20378;-59
2022/05/08 01:03:00;;;;;;;;;;;21.30;42.80;;;;;;5169844;27;19923;-59
2022/05/08 01:05:25;;;;;;;;;;;21.30;42.60;;;;;;5162160;27;19923;-58
2022/05/08 01:07:51;;;;;;;;;;;21.30;42.70;;;;;;5162219;27;20281;-58
2022/05/08 01:10:17;;;;;;;;;;;21.40;42.60;;;;;;5169313;27;19930;-59
2022/05/08 01:12:46;;;;;;;;;;;21.30;42.70;;;;;;5163912;27;20021;-60
2022/05/08 01:15:15;;;;;;;;;;;21.30;42.60;;;;;;5163983;27;19933;-60
2022/05/08 01:17:41;;;;;;;;;;;21.30;42.80;;;;;;5169304;27;19934;-59
2022/05/08 01:20:07;;;;;;;;;;;21.30;42.90;;;;;;5164131;27;20420;-59
2022/05/08 01:22:33;;;;;;;;;;;21.30;42.80;;;;;;5164714;27;19923;-58
2022/05/08 01:24:59;;;;;;;;;;;21.30;43.20;;;;;;5165304;27;19930;-60
2022/05/08 01:27:25;;;;;;;;;;;21.30;43.00;;;;;;5162915;27;19982;-59
2022/05/08 01:29:50;;;;;;;;;;;21.30;43.10;;;;;;5168800;27;19926;-59
2022/05/08 01:32:16;;;;;;;;;;;21.30;43.20;;;;;;5163432;27;19950;-59
2022/05/08 01:34:42;;;;;;;;;;;21.30;43.10;;;;;;5163475;27;19930;-58
2022/05/08 01:37:08;;;;;;;;;;;21.30;43.10;;;;;;5168953;27;19927;-60
2022/05/08 01:39:34;;;;;;;;;;;21.20;43.30;;;;;;5163765;27;19969;-58
2022/05/08 01:42:02;;;;;;;;;;;21.30;43.30;;;;;;5161953;27;19923;-59
2022/05/08 01:44:28;;;;;;;;;;;21.20;43.40;;;;;;5166905;27;19963;-58
2022/05/08 01:48:21;;;;;;;;;;;21.20;43.20;;;;;;5163322;27;20275;-60
2022/05/08 01:49:40;;;;;;;;;;;21.20;43.20;;;;;;5163750;27;19923;-57
2022/05/08 01:52:06;;;;;;;;;;;21.20;43.30;;;;;;5168755;27;19929;-59
2022/05/08 01:54:32;;;;;;;;;;;21.20;43.30;;;;;;5163590;27;19929;-59
2022/05/08 01:56:58;;;;;;;;;;;21.20;43.30;;;;;;5168732;27;19970;-58
2022/05/08 01:59:24;;;;;;;;;;;21.20;43.20;;;;;;5162281;27;19969;-59
2022/05/08 02:01:50;;;;;;;;;;;21.20;43.20;;;;;;5160169;27;19937;-58
2022/05/08 02:04:16;;;;;;;;;;;21.20;43.20;;;;;;5167527;27;19923;-57
2022/05/08 02:06:42;;;;;;;;;;;21.10;43.30;;;;;;5162722;27;19927;-59
2022/05/08 02:09:07;;;;;;;;;;;21.20;43.40;;;;;;5163001;27;19922;-58
2022/05/08 02:11:33;;;;;;;;;;;21.20;43.30;;;;;;5168242;27;19930;-59
2022/05/08 02:13:59;;;;;;;;;;;21.20;43.30;;;;;;5163129;27;19952;-59
2022/05/08 02:16:25;;;;;;;;;;;21.20;43.40;;;;;;5168567;27;19931;-58
2022/05/08 02:18:51;;;;;;;;;;;21.10;43.40;;;;;;5160804;27;20900;-58
2022/05/08 02:21:17;;;;;;;;;;;21.20;43.20;;;;;;5160847;27;19926;-58
2022/05/08 02:23:43;;;;;;;;;;;21.10;43.50;;;;;;5167959;27;19931;-59
2022/05/08 02:26:08;;;;;;;;;;;21.10;43.60;;;;;;5162672;27;20424;-57
2022/05/08 02:28:34;;;;;;;;;;;21.20;43.30;;;;;;5162677;27;19933;-58
2022/05/08 02:31:00;;;;;;;;;;;21.20;43.30;;;;;;5168242;27;19927;-57
2022/05/08 02:33:26;;;;;;;;;;;21.10;43.40;;;;;;5162887;27;19975;-58
2022/05/08 02:35:51;;;;;;;;;;;21.10;43.60;;;;;;5168382;27;20370;-58
2022/05/08 02:38:17;;;;;;;;;;;21.20;43.40;;;;;;5159629;27;19962;-58
2022/05/08 02:40:43;;;;;;;;;;;21.00;43.60;;;;;;5161423;27;20385;-57
2022/05/08 02:43:09;;;;;;;;;;;21.00;43.60;;;;;;5167883;27;19923;-58
2022/05/08 02:45:35;;;;;;;;;;;21.10;43.50;;;;;;5162412;27;19982;-58
2022/05/08 02:48:00;;;;;;;;;;;21.10;43.50;;;;;;5162312;27;20093;-58
2022/05/08 02:50:26;;;;;;;;;;;21.10;43.50;;;;;;5168135;27;19922;-59
2022/05/08 02:52:52;;;;;;;;;;;21.20;43.40;;;;;;5162697;27;19923;-58
2022/05/08 03:00:47;;;;;;;;;;;21.10;43.50;;;;;;5146214;27;19934;-58
2022/05/08 03:03:13;;;;;;;;;;;21.10;43.30;;;;;;5162509;27;19923;-57
2022/05/08 03:05:42;;;;;;;;;;;21.10;43.30;;;;;;5167450;27;19929;-58
2022/05/08 03:08:08;;;;;;;;;;;21.10;43.40;;;;;;5143559;27;19931;-58
2022/05/08 03:13:18;;;;;;;;;;;21.20;43.30;;;;;;5164989;27;19923;-58
2022/05/08 03:15:44;;;;;;;;;;;21.10;43.30;;;;;;5159390;27;19923;-60
2022/05/08 03:18:10;;;;;;;;;;;21.10;43.40;;;;;;5166983;27;19944;-58
2022/05/08 03:20:36;;;;;;;;;;;21.20;43.10;;;;;;5161881;27;19971;-57
2022/05/08 03:23:02;;;;;;;;;;;21.10;43.30;;;;;;5161827;27;19978;-57
2022/05/08 03:25:28;;;;;;;;;;;21.00;43.20;;;;;;5167408;27;20331;-59
2022/05/08 03:27:54;;;;;;;;;;;21.00;43.20;;;;;;5162021;27;19970;-60
2022/05/08 03:30:20;;;;;;;;;;;21.10;43.20;;;;;;5162090;27;20033;-57
2022/05/08 03:32:46;;;;;;;;;;;21.10;43.20;;;;;;5164755;27;19934;-58
2022/05/08 03:35:12;;;;;;;;;;;21.10;43.20;;;;;;5160293;27;19926;-59
2022/05/08 03:37:38;;;;;;;;;;;21.00;43.40;;;;;;5167199;27;19922;-58
2022/05/08 03:40:04;;;;;;;;;;;20.90;43.60;;;;;;5162274;27;19923;-57
2022/05/08 03:42:29;;;;;;;;;;;21.10;43.20;;;;;;5161831;27;20022;-58
2022/05/08 03:44:55;;;;;;;;;;;21.20;43.30;;;;;;5167198;27;19923;-57
2022/05/08 03:47:21;;;;;;;;;;;21.00;43.60;;;;;;5161978;27;19930;-59
2022/05/08 03:49:47;;;;;;;;;;;21.00;43.80;;;;;;5161115;27;19926;-57
2022/05/08 03:52:13;;;;;;;;;;;21.00;44.00;;;;;;5163682;27;19959;-58
2022/05/08 03:54:39;;;;;;;;;;;21.10;43.90;;;;;;5160879;27;20289;-59
2022/05/08 03:57:05;;;;;;;;;;;21.00;44.20;;;;;;5166871;27;19977;-57
2022/05/08 03:59:31;;;;;;;;;;;20.90;44.30;;;;;;5161510;27;19930;-57
2022/05/08 04:01:56;;;;;;;;;;;21.20;43.90;;;;;;5161084;27;20392;-58
2022/05/08 04:04:22;;;;;;;;;;;21.00;44.20;;;;;;5166840;27;20315;-59
2022/05/08 04:06:48;;;;;;;;;;;21.00;44.30;;;;;;5161499;27;19927;-58
2022/05/08 04:09:16;;;;;;;;;;;21.00;44.20;;;;;;5159176;27;20252;-56
2022/05/08 04:11:42;;;;;;;;;;;21.00;44.10;;;;;;5164794;27;19923;-59
2022/05/08 04:14:08;;;;;;;;;;;21.00;44.20;;;;;;5160994;27;19934;-60
2022/05/08 04:16:35;;;;;;;;;;;21.00;44.20;;;;;;5166455;27;19970;-58
2022/05/08 04:19:00;;;;;;;;;;;21.10;44.20;;;;;;5162200;27;19923;-58
2022/05/08 04:21:26;;;;;;;;;;;21.10;44.10;;;;;;5162735;27;20282;-57
2022/05/08 04:26:36;;;;;;;;;;;21.00;44.30;;;;;;5164474;27;20009;-57
2022/05/08 04:29:02;;;;;;;;;;;21.10;44.00;;;;;;5161605;27;19934;-60
2022/05/08 04:31:29;;;;;;;;;;;21.00;44.10;;;;;;5169701;27;19922;-57
2022/05/08 04:33:54;;;;;;;;;;;20.90;44.30;;;;;;5164770;27;20005;-59
2022/05/08 04:36:20;;;;;;;;;;;21.10;44.00;;;;;;5165010;27;20056;-53
2022/05/08 04:38:46;;;;;;;;;;;21.00;44.20;;;;;;5169966;27;19972;-58
2022/05/08 04:41:12;;;;;;;;;;;21.20;43.80;;;;;;5164858;27;20393;-54
2022/05/08 04:43:37;;;;;;;;;;;21.00;44.00;;;;;;5170335;27;20018;-59
2022/05/08 04:46:03;;;;;;;;;;;21.10;43.80;;;;;;5143298;27;20670;-58
2022/05/08 04:48:29;;;;;;;;;;;21.10;43.80;;;;;;5162880;27;19927;-57
2022/05/08 04:50:55;;;;;;;;;;;21.00;44.00;;;;;;5169523;27;19927;-58
2022/05/08 04:53:21;;;;;;;;;;;21.30;43.50;;;;;;5145700;27;19978;-59
2022/05/08 04:55:47;;;;;;;;;;;21.10;43.60;;;;;;5164330;27;20341;-57
2022/05/08 04:58:12;;;;;;;;;;;21.00;43.70;;;;;;5169877;27;19922;-59
2022/05/08 05:00:38;;;;;;;;;;;21.10;43.40;;;;;;5164645;27;20331;-56
2022/05/08 05:03:04;;;;;;;;;;;20.90;43.70;;;;;;5168054;27;20267;-56
2022/05/08 05:05:30;;;;;;;;;;;21.10;43.50;;;;;;5162830;27;19958;-57
2022/05/08 05:07:55;;;;;;;;;;;21.10;43.50;;;;;;5163187;27;19926;-58
2022/05/08 05:10:22;;;;;;;;;;;21.10;43.70;;;;;;5169179;27;19973;-58
2022/05/08 05:12:48;;;;;;;;;;;21.10;43.70;;;;;;5163808;27;19927;-56
2022/05/08 05:15:14;;;;;;;;;;;21.20;43.60;;;;;;5163690;27;19922;-57
2022/05/08 05:17:40;;;;;;;;;;;21.10;43.70;;;;;;5169462;27;19923;-59
2022/05/08 05:20:06;;;;;;;;;;;21.00;44.00;;;;;;5164185;27;19933;-57
2022/05/08 05:22:32;;;;;;;;;;;21.10;44.00;;;;;;5163207;27;20309;-57
2022/05/08 05:24:57;;;;;;;;;;;21.00;44.10;;;;;;5166579;27;19922;-58
2022/05/08 05:27:23;;;;;;;;;;;21.10;44.00;;;;;;5163357;27;20422;-56
2022/05/08 05:29:49;;;;;;;;;;;21.10;43.90;;;;;;5169050;27;19923;-57
2022/05/08 05:32:15;;;;;;;;;;;21.00;44.10;;;;;;5162780;27;20458;-57
2022/05/08 05:34:41;;;;;;;;;;;21.00;44.10;;;;;;5163471;27;19977;-58
2022/05/08 05:37:07;;;;;;;;;;;21.00;44.20;;;;;;5169280;27;20374;-58
2022/05/08 05:39:33;;;;;;;;;;;21.10;43.90;;;;;;5163973;27;19929;-59
2022/05/08 05:41:59;;;;;;;;;;;21.10;44.00;;;;;;5160663;27;19937;-50
2022/05/08 05:44:26;;;;;;;;;;;21.00;44.10;;;;;;5168039;27;20395;-58
2022/05/08 05:49:38;;;;;;;;;;;21.00;44.00;;;;;;5164532;27;20411;-57
2022/05/08 05:52:06;;;;;;;;;;;21.10;44.10;;;;;;5168318;27;20436;-59
2022/05/08 05:54:32;;;;;;;;;;;21.10;43.90;;;;;;5163706;27;20414;-57
2022/05/08 05:56:58;;;;;;;;;;;21.00;44.30;;;;;;5169025;27;19966;-58
2022/05/08 05:59:23;;;;;;;;;;;21.10;43.90;;;;;;5161176;27;19923;-58
2022/05/08 06:01:49;;;;;;;;;;;21.10;43.90;;;;;;5161348;27;19927;-57
2022/05/08 06:04:15;;;;;;;;;;;21.10;44.10;;;;;;5168256;27;19944;-57
2022/05/08 06:06:41;;;;;;;;;;;21.10;44.10;;;;;;5162891;27;20394;-59
2022/05/08 06:09:07;;;;;;;;;;;21.10;44.20;;;;;;5162970;27;19926;-58
2022/05/08 06:11:33;;;;;;;;;;;21.20;44.00;;;;;;5168489;27;19923;-59
2022/05/08 06:13:59;;;;;;;;;;;21.10;44.20;;;;;;5163186;27;19929;-57
2022/05/08 06:16:25;;;;;;;;;;;21.00;44.30;;;;;;5168461;27;19930;-59
2022/05/08 06:18:50;;;;;;;;;;;21.10;44.30;;;;;;5160001;27;19923;-60
2022/05/08 06:21:16;;;;;;;;;;;21.10;44.30;;;;;;5161956;27;19923;-57
2022/05/08 06:23:42;;;;;;;;;;;21.00;44.50;;;;;;5168262;27;19926;-56
2022/05/08 06:26:08;;;;;;;;;;;21.00;44.50;;;;;;5144322;27;19927;-58
2022/05/08 06:28:34;;;;;;;;;;;21.20;44.20;;;;;;5162500;27;20203;-58
2022/05/08 06:31:00;;;;;;;;;;;21.10;44.30;;;;;;5168323;27;19922;-58
2022/05/08 06:33:26;;;;;;;;;;;21.10;44.40;;;;;;5162860;27;20383;-57
2022/05/08 06:35:54;;;;;;;;;;;21.00;44.40;;;;;;5166478;27;19929;-57
2022/05/08 06:38:19;;;;;;;;;;;21.10;44.30;;;;;;5160716;27;19929;-57
2022/05/08 06:40:45;;;;;;;;;;;21.10;44.40;;;;;;5162236;27;20356;-59
2022/05/08 06:43:11;;;;;;;;;;;21.10;44.50;;;;;;5167775;27;19929;-58
2022/05/08 06:45:37;;;;;;;;;;;21.00;44.60;;;;;;5162270;27;20257;-58
2022/05/08 06:48:04;;;;;;;;;;;21.10;44.60;;;;;;5162198;27;19959;-56
2022/05/08 06:50:30;;;;;;;;;;;21.20;44.50;;;;;;5168080;27;19946;-56
2022/05/08 06:52:55;;;;;;;;;;;21.10;44.40;;;;;;5162743;27;20282;-59
2022/05/08 06:55:21;;;;;;;;;;;21.10;44.40;;;;;;5162604;27;19930;-58
2022/05/08 06:57:47;;;;;;;;;;;21.20;44.20;;;;;;5164234;27;20061;-57
2022/05/08 07:02:58;;;;;;;;;;;21.20;44.40;;;;;;5167803;27;20293;-58
2022/05/08 07:05:23;;;;;;;;;;;21.20;44.50;;;;;;5162057;27;19923;-57
2022/05/08 07:07:49;;;;;;;;;;;21.30;44.50;;;;;;5162242;27;19930;-58
2022/05/08 07:10:15;;;;;;;;;;;21.20;44.60;;;;;;5167828;27;19975;-58
2022/05/08 07:12:41;;;;;;;;;;;21.30;44.60;;;;;;5160330;27;19930;-59
2022/05/08 07:15:07;;;;;;;;;;;21.30;44.70;;;;;;5159974;27;19951;-58
2022/05/08 07:17:33;;;;;;;;;;;21.30;44.60;;;;;;5167247;27;19923;-58
2022/05/08 07:19:59;;;;;;;;;;;21.30;44.70;;;;;;5162051;27;19930;-59
2022/05/08 07:22:24;;;;;;;;;;;21.30;44.60;;;;;;5166077;27;19930;-59
2022/05/08 07:24:50;;;;;;;;;;;21.30;44.60;;;;;;5163672;27;19931;-57
2022/05/08 07:27:16;;;;;;;;;;;21.30;44.80;;;;;;5162200;27;19982;-57
2022/05/08 07:29:44;;;;;;;;;;;21.30;44.70;;;;;;5167492;27;20236;-58
2022/05/08 07:32:10;;;;;;;;;;;21.30;44.80;;;;;;5158633;27;19933;-57
2022/05/08 07:37:20;;;;;;;;;;;21.40;44.80;;;;;;5166973;27;20074;-59
2022/05/08 07:39:46;;;;;;;;;;;21.40;44.90;;;;;;5161807;27;19922;-59
2022/05/08 07:42:12;;;;;;;;;;;21.40;44.90;;;;;;5161606;27;19966;-58
2022/05/08 07:44:38;;;;;;;;;;;21.50;44.90;;;;;;5167337;27;19927;-59
2022/05/08 07:47:04;;;;;;;;;;;21.40;44.90;;;;;;5161852;27;19926;-58
2022/05/08 07:49:30;;;;;;;;;;;21.40;44.70;;;;;;5164041;27;19955;-58
2022/05/08 07:51:56;;;;;;;;;;;21.50;44.60;;;;;;5161327;27;20481;-57
2022/05/08 07:54:21;;;;;;;;;;;21.40;44.70;;;;;;5161172;27;20010;-57
2022/05/08 07:56:47;;;;;;;;;;;21.50;44.80;;;;;;5149247;27;20362;-58
2022/05/08 07:59:13;;;;;;;;;;;21.50;44.90;;;;;;5144563;27;19924;-58
2022/05/08 08:01:39;;;;;;;;;;;21.50;44.80;;;;;;5164964;27;19931;-58
2022/05/08 08:04:04;;;;;;;;;;;21.50;44.80;;;;;;5170599;27;20378;-59
2022/05/08 08:06:31;;;;;;;;;;;21.50;44.60;;;;;;5165188;27;19922;-59
2022/05/08 08:08:57;;;;;;;;;;;21.50;44.70;;;;;;5163559;27;20024;-57
2022/05/08 08:11:23;;;;;;;;;;;21.60;44.70;;;;;;5168298;27;20355;-59
2022/05/08 08:13:49;;;;;;;;;;;21.70;44.60;;;;;;5164976;27;19970;-59
2022/05/08 08:16:15;;;;;;;;;;;21.70;44.80;;;;;;5170471;27;19975;-59
2022/05/08 08:18:43;;;;;;;;;;;21.70;44.60;;;;;;5164884;27;20377;-59
2022/05/08 08:21:10;;;;;;;;;;;21.70;44.70;;;;;;5164956;27;19933;-59
2022/05/08 08:23:36;;;;;;;;;;;21.70;44.60;;;;;;5170330;27;19926;-56
2022/05/08 08:26:01;;;;;;;;;;;21.70;44.70;;;;;;5163244;27;20353;-58
2022/05/08 08:28:27;;;;;;;;;;;21.80;44.60;;;;;;5162514;27;19971;-60
2022/05/08 08:30:53;;;;;;;;;;;21.80;44.60;;;;;;5169643;27;20406;-59
2022/05/08 08:33:19;;;;;;;;;;;21.80;44.50;;;;;;5164523;27;19923;-56
2022/05/08 08:35:44;;;;;;;;;;;21.80;44.30;;;;;;5170017;27;19930;-59
2022/05/08 08:38:10;;;;;;;;;;;21.80;44.50;;;;;;5164599;27;19923;-56
2022/05/08 08:40:38;;;;;;;;;;;21.80;44.40;;;;;;5164651;27;20826;-59
2022/05/08 08:43:04;;;;;;;;;;;21.80;44.40;;;;;;5149542;27;19923;-57
2022/05/08 08:48:18;;;;;;;;;;;21.90;44.20;;;;;;5146385;27;19933;-59
2022/05/08 08:50:43;;;;;;;;;;;22.00;43.70;;;;;;5169471;27;19937;-58
2022/05/08 08:53:09;;;;;;;;;;;22.00;43.60;;;;;;5144385;27;19923;-59
2022/05/08 08:55:35;;;;;;;;;;;22.00;43.80;;;;;;5164080;27;20163;-58
2022/05/08 08:58:01;;;;;;;;;;;22.00;43.80;;;;;;5169705;27;19922;-57
2022/05/08 09:00:27;;;;;;;;;;;22.00;43.70;;;;;;5164175;27;19923;-58
2022/05/08 09:02:55;;;;;;;;;;;22.00;43.80;;;;;;5168086;27;20495;-59
2022/05/08 09:05:20;;;;;;;;;;;22.10;43.80;;;;;;5162115;27;19923;-59
2022/05/08 09:07:47;;;;;;;;;;;22.10;43.70;;;;;;5163373;27;19946;-58
2022/05/08 09:10:13;;;;;;;;;;;22.20;43.70;;;;;;5169296;27;20398;-58
2022/05/08 09:12:40;;;;;;;;;;;22.20;43.80;;;;;;5164061;27;19945;-56
2022/05/08 09:15:22;;;;;;;;;;;22.20;43.80;;;;;;5163957;27;20193;-57
2022/05/08 09:17:49;;;;;;;;;;;22.20;44.00;;;;;;5169745;27;20377;-58
2022/05/08 09:20:29;;;;;;;;;;;22.20;44.10;;;;;;5163819;27;19927;-56
2022/05/08 09:23:01;;;;;;;;;;;22.30;44.10;;;;;;5160864;27;19945;-58
2022/05/08 09:25:45;;;;;;;;;;;22.30;44.10;;;;;;5168600;27;19927;-57
2022/05/08 09:28:12;;;;;;;;;;;22.40;44.10;;;;;;5163581;27;20048;-58
2022/05/08 09:30:56;;;;;;;;;;;22.40;43.80;;;;;;5145063;27;19933;-59
2022/05/08 09:33:23;;;;;;;;;;;21.30;45.60;;;;;;5169105;27;19926;-59
2022/05/08 09:35:48;;;;;;;;;;;21.20;46.30;;;;;;5163832;27;19923;-59
2022/05/08 09:38:14;;;;;;;;;;;21.50;46.40;;;;;;5163767;27;20563;-57
2022/05/08 09:40:40;;;;;;;;;;;21.60;45.70;;;;;;5166264;27;19931;-59
2022/05/08 09:43:06;;;;;;;;;;;21.70;45.50;;;;;;5162294;27;19923;-56
2022/05/08 09:45:31;;;;;;;;;;;21.60;45.60;;;;;;5168577;27;19927;-57
2022/05/08 09:47:57;;;;;;;;;;;21.60;45.50;;;;;;5163244;27;19957;-59
2022/05/08 09:50:23;;;;;;;;;;;21.60;45.50;;;;;;5163116;27;19931;-59
2022/05/08 09:52:49;;;;;;;;;;;21.60;45.60;;;;;;5168781;27;19938;-58
2022/05/08 09:55:16;;;;;;;;;;;21.60;45.50;;;;;;5163570;27;20017;-58
2022/05/08 09:57:42;;;;;;;;;;;21.60;45.50;;;;;;5162317;27;19922;-58
2022/05/08 10:00:08;;;;;;;;;;;21.60;45.50;;;;;;5166335;27;19930;-56
2022/05/08 10:02:34;;;;;;;;;;;21.60;45.60;;;;;;5162889;27;19923;-59
2022/05/08 10:05:00;;;;;;;;;;;21.60;45.50;;;;;;5166924;27;19927;-59
2022/05/08 10:07:25;;;;;;;;;;;21.60;45.50;;;;;;5165341;27;20454;-60
2022/05/08 10:15:41;;;;;;;;;;;21.60;45.40;;;;;;5168449;27;19956;-59
2022/05/08 10:18:22;;;;;;;;;;;21.60;45.40;;;;;;5159349;27;19941;-58
2022/05/08 10:21:01;;;;;;;;;;;21.60;45.50;;;;;;5162365;27;19945;-59
2022/05/08 10:23:53;;;;;;;;;;;21.60;45.60;;;;;;5164174;27;19970;-59
2022/05/08 10:26:22;;;;;;;;;;;21.60;45.60;;;;;;5157908;27;19923;-58
2022/05/08 10:29:03;;;;;;;;;;;21.60;45.70;;;;;;5162681;27;19927;-59
2022/05/08 10:31:48;;;;;;;;;;;21.60;45.90;;;;;;5168809;27;19923;-58
2022/05/08 10:34:14;;;;;;;;;;;21.60;45.90;;;;;;5162285;27;19933;-60
2022/05/08 10:36:40;;;;;;;;;;;21.60;45.90;;;;;;5160132;27;20013;-59
2022/05/08 10:39:24;;;;;;;;;;;21.70;45.60;;;;;;5148971;27;19930;-59
2022/05/08 10:41:53;;;;;;;;;;;21.70;45.50;;;;;;5162548;27;19926;-59
2022/05/08 10:44:51;;;;;;;;;;;21.80;45.50;;;;;;5162566;27;20040;-60
2022/05/08 10:47:40;;;;;;;;;;;21.70;45.70;;;;;;5110660;27;19933;-59
2022/05/08 10:50:07;;;;;;;;;;;21.70;46.00;;;;;;5166807;27;19947;-59
2022/05/08 10:52:33;;;;;;;;;;;21.60;46.00;;;;;;5161946;27;20112;-56
2022/05/08 10:54:59;;;;;;;;;;;21.60;45.80;;;;;;5164910;27;20176;-58
2022/05/08 10:57:28;;;;;;;;;;;21.70;45.50;;;;;;5161693;27;19930;-59
2022/05/08 10:59:54;;;;;;;;;;;21.70;45.00;;;;;;5162065;27;19927;-60
2022/05/08 11:02:39;;;;;;;;;;;21.90;44.40;;;;;;5167832;27;19975;-56
2022/05/08 11:05:12;;;;;;;;;;;21.80;43.80;;;;;;5162423;27;19926;-57
2022/05/08 11:07:39;;;;;;;;;;;21.80;43.40;;;;;;5161921;27;21620;-57
2022/05/08 11:10:15;;;;;;;;;;;21.70;43.20;;;;;;5167831;27;20330;-59
2022/05/08 11:13:00;;;;;;;;;;;21.80;42.80;;;;;;5159228;27;19940;-58
2022/05/08 11:15:26;;;;;;;;;;;21.80;42.60;;;;;;5161501;27;19929;-59
2022/05/08 11:18:04;;;;;;;;;;;21.80;42.50;;;;;;5167531;27;19923;-56
2022/05/08 11:20:31;;;;;;;;;;;21.80;42.30;;;;;;5162368;27;19951;-58
2022/05/08 11:22:57;;;;;;;;;;;22.00;41.90;;;;;;5161965;27;19922;-59
2022/05/08 11:25:23;;;;;;;;;;;21.90;41.70;;;;;;5167504;27;20382;-56
2022/05/08 11:27:52;;;;;;;;;;;21.90;41.80;;;;;;5162253;27;19934;-59
2022/05/08 11:30:36;;;;;;;;;;;21.70;42.10;;;;;;5160228;27;19923;-56
2022/05/08 11:38:45;;;;;;;;;;;21.20;43.80;;;;;;5165727;27;19929;-58
2022/05/08 11:41:11;;;;;;;;;;;21.40;43.30;;;;;;5170983;27;20010;-59
2022/05/08 11:43:39;;;;;;;;;;;21.70;42.50;;;;;;5165947;27;19923;-60
2022/05/08 11:46:05;;;;;;;;;;;21.80;42.10;;;;;;5165870;27;19922;-58
2022/05/08 11:48:36;;;;;;;;;;;21.70;42.00;;;;;;5168870;27;19931;-57
2022/05/08 11:51:02;;;;;;;;;;;21.70;41.90;;;;;;5163817;27;19927;-57
2022/05/08 11:53:37;;;;;;;;;;;21.70;41.70;;;;;;5167130;27;20026;-58
2022/05/08 11:56:18;;;;;;;;;;;21.80;41.40;;;;;;5170815;27;20010;-57
2022/05/08 11:58:44;;;;;;;;;;;21.80;41.40;;;;;;5163792;27;19922;-58
2022/05/08 12:01:19;;;;;;;;;;;21.80;41.30;;;;;;5168528;27;19980;-54
2022/05/08 12:03:45;;;;;;;;;;;21.80;41.20;;;;;;5170977;27;20287;-57
2022/05/08 12:06:12;;;;;;;;;;;21.80;41.10;;;;;;5164666;27;19933;-58
2022/05/08 12:08:37;;;;;;;;;;;21.80;41.20;;;;;;5168322;27;20311;-56
2022/05/08 12:11:03;;;;;;;;;;;21.90;41.00;;;;;;5146452;27;19923;-55
2022/05/08 12:13:34;;;;;;;;;;;21.90;41.00;;;;;;5165487;27;19937;-57
2022/05/08 12:16:18;;;;;;;;;;;21.90;40.80;;;;;;5170588;27;19975;-56
2022/05/08 12:19:02;;;;;;;;;;;21.90;40.90;;;;;;5165237;27;20465;-57
2022/05/08 12:21:28;;;;;;;;;;;21.90;40.90;;;;;;5165319;27;19926;-56
2022/05/08 12:23:56;;;;;;;;;;;21.90;41.00;;;;;;5170643;27;20060;-55
2022/05/08 12:26:22;;;;;;;;;;;21.90;41.10;;;;;;5162404;27;19978;-55
2022/05/08 12:28:49;;;;;;;;;;;22.00;41.00;;;;;;5164489;27;20013;-58
2022/05/08 12:31:15;;;;;;;;;;;22.00;41.20;;;;;;5169980;27;20286;-54
2022/05/08 12:33:41;;;;;;;;;;;22.00;41.20;;;;;;5165310;27;19933;-55
2022/05/08 12:36:07;;;;;;;;;;;21.90;41.20;;;;;;5165612;27;20322;-56
2022/05/08 12:38:32;;;;;;;;;;;22.00;41.10;;;;;;5170298;27;20017;-54
2022/05/08 12:40:58;;;;;;;;;;;22.00;40.90;;;;;;5165631;27;20370;-54
2022/05/08 12:43:24;;;;;;;;;;;22.00;41.00;;;;;;5168204;27;19922;-55
2022/05/08 12:45:50;;;;;;;;;;;22.00;41.20;;;;;;5163445;27;19923;-57
2022/05/08 12:48:21;;;;;;;;;;;22.00;41.20;;;;;;5164753;27;20315;-56
2022/05/08 12:50:48;;;;;;;;;;;21.90;41.30;;;;;;5170140;27;19923;-56
2022/05/08 12:53:13;;;;;;;;;;;22.00;41.20;;;;;;5165229;27;19923;-54
2022/05/08 12:55:39;;;;;;;;;;;22.10;41.10;;;;;;5164962;27;19950;-53
2022/05/08 13:00:50;;;;;;;;;;;22.00;40.90;;;;;;5164892;27;19975;-56
2022/05/08 13:03:16;;;;;;;;;;;22.00;40.90;;;;;;5162145;27;19923;-54
2022/05/08 13:05:42;;;;;;;;;;;22.00;40.90;;;;;;5169140;27;20059;-54
2022/05/08 13:08:07;;;;;;;;;;;22.00;40.90;;;;;;5164474;27;19983;-54
2022/05/08 13:10:35;;;;;;;;;;;22.00;40.70;;;;;;5169625;27;20018;-54
2022/05/08 13:13:01;;;;;;;;;;;22.10;40.40;;;;;;5164906;27;19932;-55
2022/05/08 13:15:27;;;;;;;;;;;22.10;40.20;;;;;;5164980;27;20305;-57
2022/05/08 13:17:52;;;;;;;;;;;22.10;40.10;;;;;;5170323;27;19934;-53
2022/05/08 13:20:18;;;;;;;;;;;21.20;40.60;;;;;;5163223;27;19928;-48
2022/05/08 13:22:44;;;;;;;;;;;20.00;43.00;;;;;;5163100;27;20239;-48
2022/05/08 13:25:10;;;;;;;;;;;21.10;40.70;;;;;;5150179;27;19930;-50
2022/05/08 13:27:36;;;;;;;;;;;21.50;39.80;;;;;;5164559;27;19933;-50
2022/05/08 13:30:02;;;;;;;;;;;21.80;39.10;;;;;;5169253;27;19922;-48
2022/05/08 13:32:28;;;;;;;;;;;21.80;39.00;;;;;;5164638;27;19927;-49
2022/05/08 13:34:54;;;;;;;;;;;21.80;38.80;;;;;;5164746;27;20393;-49
2022/05/08 13:37:20;;;;;;;;;;;21.30;39.50;;;;;;5169259;27;19923;-50
2022/05/08 13:39:46;;;;;;;;;;;21.10;39.10;;;;;;5161619;27;19927;-49
2022/05/08 13:42:15;;;;;;;;;;;21.00;39.00;;;;;;5163327;27;20210;-50
2022/05/08 13:44:41;;;;;;;;;;;21.40;39.70;;;;;;5169000;27;19937;-50
2022/05/08 13:47:08;;;;;;;;;;;21.60;39.20;;;;;;5164255;27;20326;-50
2022/05/08 13:49:36;;;;;;;;;;;21.80;38.70;;;;;;5166460;27;19938;-52
2022/05/08 13:52:01;;;;;;;;;;;21.80;38.50;;;;;;5167544;27;20324;-48
2022/05/08 13:54:27;;;;;;;;;;;21.80;38.50;;;;;;5163205;27;19937;-50
2022/05/08 13:56:56;;;;;;;;;;;21.80;38.50;;;;;;5167307;27;19930;-50
2022/05/08 13:59:22;;;;;;;;;;;21.90;38.40;;;;;;5161935;27;19949;-48
2022/05/08 14:01:47;;;;;;;;;;;21.90;38.40;;;;;;5163652;27;19929;-48
2022/05/08 14:04:13;;;;;;;;;;;21.90;38.40;;;;;;5168686;27;20342;-49
2022/05/08 14:06:39;;;;;;;;;;;21.90;38.40;;;;;;5163844;27;20041;-51
2022/05/08 14:09:05;;;;;;;;;;;22.00;38.40;;;;;;5163626;27;19936;-47
2022/05/08 14:11:31;;;;;;;;;;;21.90;38.40;;;;;;5168893;27;19973;-48
2022/05/08 14:13:56;;;;;;;;;;;21.90;38.40;;;;;;5163687;27;20278;-47
2022/05/08 14:16:22;;;;;;;;;;;22.00;38.30;;;;;;5165839;27;19934;-48
2022/05/08 14:18:48;;;;;;;;;;;22.00;38.30;;;;;;5162624;27;19923;-49
2022/05/08 14:21:14;;;;;;;;;;;22.00;38.50;;;;;;5163090;27;20206;-50
2022/05/08 14:23:40;;;;;;;;;;;22.10;38.50;;;;;;5168701;27;19923;-50
2022/05/08 14:26:06;;;;;;;;;;;22.10;38.50;;;;;;5163647;27;20289;-47
2022/05/08 14:28:32;;;;;;;;;;;22.10;38.70;;;;;;5163310;27;19994;-44
2022/05/08 14:36:27;;;;;;;;;;;20.90;41.90;;;;;;5162166;27;19931;-44
2022/05/08 14:38:52;;;;;;;;;;;21.50;40.60;;;;;;5149589;27;19975;-44
2022/05/08 14:41:19;;;;;;;;;;;21.80;40.20;;;;;;5163500;27;19926;-45
2022/05/08 14:43:46;;;;;;;;;;;21.80;40.20;;;;;;5147752;27;19930;-51
2022/05/08 14:46:11;;;;;;;;;;;21.80;40.00;;;;;;5166348;27;20527;-45
2022/05/08 14:48:38;;;;;;;;;;;21.90;39.80;;;;;;5163616;27;20230;-44
2022/05/08 14:51:03;;;;;;;;;;;21.90;39.90;;;;;;5168125;27;19935;-47
2022/05/08 14:53:29;;;;;;;;;;;21.90;40.00;;;;;;5161058;27;19929;-44
2022/05/08 14:55:54;;;;;;;;;;;22.00;39.90;;;;;;5162750;27;19933;-43
2022/05/08 14:58:23;;;;;;;;;;;22.00;40.00;;;;;;5167804;27;19926;-46